sensor_id;sensor_type;location;lat;lon;timestamp;P1;durP1;ratioP1;P2;durP2;ratioP2
8252;SDS011;61313;48.396;10.008;2022-11-03T00:01:02;9.77;;;6.60;;
8252;SDS011;61313;48.396;10.008;2022-11-03T00:03:28;12.20;;;6.67;;
8252;SDS011;61313;48.396;10.008;2022-11-03T00:05:54;11.60;;;6.90;;
8252;SDS011;61313;48.396;10.008;2022-11-03T00:08:29;17.03;;;7.20;;
8252;SDS011;61313;48.396;10.008;2022-11-03T00:13:32;9.63;;;6.63;;
8252;SDS011;61313;48.396;10.008;2022-11-03T00:15:59;7.70;;;6.83;;
8252;SDS011;61313;48.396;10.008;2022-11-03T00:18:25;10.77;;;6.87;;
8252;SDS011;61313;48.396;10.008;2022-11-03T00:20:54;9.83;;;6.60;;
8252;SDS011;61313;48.396;10.008;2022-11-03T00:23:24;10.60;;;7.97;;
8252;SDS011;61313;48.396;10.008;2022-11-03T00:25:51;7.97;;;7.07;;
8252;SDS011;61313;48.396;10.008;2022-11-03T00:28:17;11.60;;;7.00;;
8252;SDS011;61313;48.396;10.008;2022-11-03T00:30:42;7.43;;;6.50;;
8252;SDS011;61313;48.396;10.008;2022-11-03T00:33:08;10.67;;;7.37;;
8252;SDS011;61313;48.396;10.008;2022-11-03T00:35:34;9.20;;;7.00;;
8252;SDS011;61313;48.396;10.008;2022-11-03T00:37:59;9.03;;;7.23;;
8252;SDS011;61313;48.396;10.008;2022-11-03T00:40:25;10.27;;;8.10;;
8252;SDS011;61313;48.396;10.008;2022-11-03T00:42:51;13.80;;;9.00;;
8252;SDS011;61313;48.396;10.008;2022-11-03T00:45:16;12.60;;;9.53;;
8252;SDS011;61313;48.396;10.008;2022-11-03T00:47:42;11.33;;;7.53;;
8252;SDS011;61313;48.396;10.008;2022-11-03T00:50:27;8.30;;;6.20;;
8252;SDS011;61313;48.396;10.008;2022-11-03T00:52:53;8.57;;;7.07;;
8252;SDS011;61313;48.396;10.008;2022-11-03T00:55:19;13.00;;;7.20;;
8252;SDS011;61313;48.396;10.008;2022-11-03T00:57:44;8.83;;;6.33;;
8252;SDS011;61313;48.396;10.008;2022-11-03T01:00:10;8.07;;;6.87;;
8252;SDS011;61313;48.396;10.008;2022-11-03T01:02:36;10.47;;;6.00;;
8252;SDS011;61313;48.396;10.008;2022-11-03T01:05:02;9.07;;;7.23;;
8252;SDS011;61313;48.396;10.008;2022-11-03T01:07:47;11.10;;;6.57;;
8252;SDS011;61313;48.396;10.008;2022-11-03T01:10:12;9.60;;;6.00;;
8252;SDS011;61313;48.396;10.008;2022-11-03T01:12:38;19.90;;;7.43;;
8252;SDS011;61313;48.396;10.008;2022-11-03T01:15:04;10.07;;;6.10;;
8252;SDS011;61313;48.396;10.008;2022-11-03T01:17:30;21.30;;;8.43;;
8252;SDS011;61313;48.396;10.008;2022-11-03T01:19:55;13.30;;;7.73;;
8252;SDS011;61313;48.396;10.008;2022-11-03T01:22:22;12.30;;;6.23;;
8252;SDS011;61313;48.396;10.008;2022-11-03T01:24:48;13.03;;;7.27;;
8252;SDS011;61313;48.396;10.008;2022-11-03T01:27:17;9.70;;;7.17;;
8252;SDS011;61313;48.396;10.008;2022-11-03T01:29:44;30.57;;;7.27;;
8252;SDS011;61313;48.396;10.008;2022-11-03T01:32:10;8.13;;;6.70;;
8252;SDS011;61313;48.396;10.008;2022-11-03T01:34:36;11.60;;;7.87;;
8252;SDS011;61313;48.396;10.008;2022-11-03T01:37:02;12.70;;;8.60;;
8252;SDS011;61313;48.396;10.008;2022-11-03T01:39:27;18.93;;;8.67;;
8252;SDS011;61313;48.396;10.008;2022-11-03T01:41:53;15.43;;;7.87;;
8252;SDS011;61313;48.396;10.008;2022-11-03T01:44:23;15.87;;;10.37;;
8252;SDS011;61313;48.396;10.008;2022-11-03T01:47:27;12.60;;;9.23;;
8252;SDS011;61313;48.396;10.008;2022-11-03T01:49:48;14.03;;;8.20;;
8252;SDS011;61313;48.396;10.008;2022-11-03T01:52:39;22.43;;;9.63;;
8252;SDS011;61313;48.396;10.008;2022-11-03T01:55:08;17.53;;;9.90;;
8252;SDS011;61313;48.396;10.008;2022-11-03T01:57:37;14.83;;;9.73;;
8252;SDS011;61313;48.396;10.008;2022-11-03T02:00:27;17.77;;;11.20;;
8252;SDS011;61313;48.396;10.008;2022-11-03T02:02:53;15.10;;;10.07;;
8252;SDS011;61313;48.396;10.008;2022-11-03T02:05:19;16.87;;;11.27;;
8252;SDS011;61313;48.396;10.008;2022-11-03T02:10:54;14.50;;;10.47;;
8252;SDS011;61313;48.396;10.008;2022-11-03T02:13:22;10.70;;;8.43;;
8252;SDS011;61313;48.396;10.008;2022-11-03T02:15:50;15.17;;;9.40;;
8252;SDS011;61313;48.396;10.008;2022-11-03T02:18:22;12.07;;;8.90;;
8252;SDS011;61313;48.396;10.008;2022-11-03T02:20:58;24.47;;;9.37;;
8252;SDS011;61313;48.396;10.008;2022-11-03T02:23:42;11.50;;;8.13;;
8252;SDS011;61313;48.396;10.008;2022-11-03T02:26:16;9.87;;;8.20;;
8252;SDS011;61313;48.396;10.008;2022-11-03T02:28:43;12.70;;;9.13;;
8252;SDS011;61313;48.396;10.008;2022-11-03T02:34:07;17.60;;;9.17;;
8252;SDS011;61313;48.396;10.008;2022-11-03T02:36:43;11.40;;;10.07;;
8252;SDS011;61313;48.396;10.008;2022-11-03T02:39:18;13.10;;;8.57;;
8252;SDS011;61313;48.396;10.008;2022-11-03T02:41:57;9.67;;;8.07;;
8252;SDS011;61313;48.396;10.008;2022-11-03T02:44:25;10.97;;;8.97;;
8252;SDS011;61313;48.396;10.008;2022-11-03T02:46:56;13.07;;;8.50;;
8252;SDS011;61313;48.396;10.008;2022-11-03T02:49:24;12.87;;;8.00;;
8252;SDS011;61313;48.396;10.008;2022-11-03T02:52:00;10.80;;;9.00;;
8252;SDS011;61313;48.396;10.008;2022-11-03T02:54:40;19.43;;;8.50;;
8252;SDS011;61313;48.396;10.008;2022-11-03T02:57:11;11.10;;;8.73;;
8252;SDS011;61313;48.396;10.008;2022-11-03T02:59:50;18.90;;;8.50;;
8252;SDS011;61313;48.396;10.008;2022-11-03T03:02:21;10.70;;;8.57;;
8252;SDS011;61313;48.396;10.008;2022-11-03T03:04:54;10.63;;;9.30;;
8252;SDS011;61313;48.396;10.008;2022-11-03T03:07:26;10.23;;;9.00;;
8252;SDS011;61313;48.396;10.008;2022-11-03T03:10:02;12.47;;;9.07;;
8252;SDS011;61313;48.396;10.008;2022-11-03T03:12:39;12.40;;;8.50;;
8252;SDS011;61313;48.396;10.008;2022-11-03T03:15:17;9.40;;;8.50;;
8252;SDS011;61313;48.396;10.008;2022-11-03T03:21:11;8.33;;;7.20;;
8252;SDS011;61313;48.396;10.008;2022-11-03T03:23:25;9.77;;;8.00;;
8252;SDS011;61313;48.396;10.008;2022-11-03T03:26:11;10.53;;;9.50;;
8252;SDS011;61313;48.396;10.008;2022-11-03T03:28:51;11.17;;;7.47;;
8252;SDS011;61313;48.396;10.008;2022-11-03T03:31:26;11.67;;;8.77;;
8252;SDS011;61313;48.396;10.008;2022-11-03T03:33:57;13.10;;;7.90;;
8252;SDS011;61313;48.396;10.008;2022-11-03T03:36:24;11.10;;;7.57;;
8252;SDS011;61313;48.396;10.008;2022-11-03T03:38:54;10.43;;;7.63;;
8252;SDS011;61313;48.396;10.008;2022-11-03T03:41:23;8.93;;;7.77;;
8252;SDS011;61313;48.396;10.008;2022-11-03T03:43:51;10.97;;;9.67;;
8252;SDS011;61313;48.396;10.008;2022-11-03T03:46:20;18.73;;;7.70;;
8252;SDS011;61313;48.396;10.008;2022-11-03T03:48:47;27.37;;;10.90;;
8252;SDS011;61313;48.396;10.008;2022-11-03T03:51:14;51.53;;;15.10;;
8252;SDS011;61313;48.396;10.008;2022-11-03T03:53:43;50.57;;;21.87;;
8252;SDS011;61313;48.396;10.008;2022-11-03T03:56:15;44.30;;;24.87;;
8252;SDS011;61313;48.396;10.008;2022-11-03T03:58:41;59.70;;;34.60;;
8252;SDS011;61313;48.396;10.008;2022-11-03T04:01:09;75.80;;;44.17;;
8252;SDS011;61313;48.396;10.008;2022-11-03T04:03:36;60.90;;;36.43;;
8252;SDS011;61313;48.396;10.008;2022-11-03T04:06:02;65.23;;;26.03;;
8252;SDS011;61313;48.396;10.008;2022-11-03T04:08:28;42.47;;;21.50;;
8252;SDS011;61313;48.396;10.008;2022-11-03T04:10:53;61.43;;;32.57;;
8252;SDS011;61313;48.396;10.008;2022-11-03T04:13:38;62.43;;;33.63;;
8252;SDS011;61313;48.396;10.008;2022-11-03T04:16:22;62.63;;;32.80;;
8252;SDS011;61313;48.396;10.008;2022-11-03T04:19:07;77.97;;;44.80;;
8252;SDS011;61313;48.396;10.008;2022-11-03T04:21:53;69.90;;;39.67;;
8252;SDS011;61313;48.396;10.008;2022-11-03T04:24:37;92.93;;;50.03;;
8252;SDS011;61313;48.396;10.008;2022-11-03T04:29:50;68.07;;;37.97;;
8252;SDS011;61313;48.396;10.008;2022-11-03T04:32:17;61.87;;;33.20;;
8252;SDS011;61313;48.396;10.008;2022-11-03T04:34:45;46.30;;;24.63;;
8252;SDS011;61313;48.396;10.008;2022-11-03T04:37:12;45.67;;;24.53;;
8252;SDS011;61313;48.396;10.008;2022-11-03T04:39:39;64.47;;;24.93;;
8252;SDS011;61313;48.396;10.008;2022-11-03T04:42:17;61.50;;;30.10;;
8252;SDS011;61313;48.396;10.008;2022-11-03T04:44:45;42.63;;;21.43;;
8252;SDS011;61313;48.396;10.008;2022-11-03T04:47:12;45.60;;;23.27;;
8252;SDS011;61313;48.396;10.008;2022-11-03T04:49:39;39.07;;;21.80;;
8252;SDS011;61313;48.396;10.008;2022-11-03T04:52:10;56.40;;;15.70;;
8252;SDS011;61313;48.396;10.008;2022-11-03T04:54:43;62.80;;;17.73;;
8252;SDS011;61313;48.396;10.008;2022-11-03T04:57:11;46.03;;;18.80;;
8252;SDS011;61313;48.396;10.008;2022-11-03T04:59:39;95.03;;;18.73;;
8252;SDS011;61313;48.396;10.008;2022-11-03T05:02:17;51.67;;;17.10;;
8252;SDS011;61313;48.396;10.008;2022-11-03T05:04:44;37.80;;;11.73;;
8252;SDS011;61313;48.396;10.008;2022-11-03T05:09:57;26.17;;;10.93;;
8252;SDS011;61313;48.396;10.008;2022-11-03T05:12:24;35.37;;;12.60;;
8252;SDS011;61313;48.396;10.008;2022-11-03T05:14:50;32.37;;;9.73;;
8252;SDS011;61313;48.396;10.008;2022-11-03T05:17:20;28.73;;;10.43;;
8252;SDS011;61313;48.396;10.008;2022-11-03T05:19:48;49.47;;;9.83;;
8252;SDS011;61313;48.396;10.008;2022-11-03T05:22:22;26.63;;;10.07;;
8252;SDS011;61313;48.396;10.008;2022-11-03T05:24:56;15.00;;;8.87;;
8252;SDS011;61313;48.396;10.008;2022-11-03T05:27:26;19.07;;;8.00;;
8252;SDS011;61313;48.396;10.008;2022-11-03T05:29:52;11.60;;;7.23;;
8252;SDS011;61313;48.396;10.008;2022-11-03T05:32:23;13.23;;;8.80;;
8252;SDS011;61313;48.396;10.008;2022-11-03T05:34:53;19.40;;;9.50;;
8252;SDS011;61313;48.396;10.008;2022-11-03T05:39:51;22.33;;;10.57;;
8252;SDS011;61313;48.396;10.008;2022-11-03T05:47:45;17.10;;;7.90;;
8252;SDS011;61313;48.396;10.008;2022-11-03T05:50:19;24.37;;;9.47;;
8252;SDS011;61313;48.396;10.008;2022-11-03T05:55:51;44.23;;;8.50;;
8252;SDS011;61313;48.396;10.008;2022-11-03T05:58:51;26.10;;;8.67;;
8252;SDS011;61313;48.396;10.008;2022-11-03T06:01:12;18.83;;;7.77;;
8252;SDS011;61313;48.396;10.008;2022-11-03T06:03:43;23.70;;;9.00;;
8252;SDS011;61313;48.396;10.008;2022-11-03T06:06:13;25.90;;;8.40;;
8252;SDS011;61313;48.396;10.008;2022-11-03T06:08:44;17.13;;;10.67;;
8252;SDS011;61313;48.396;10.008;2022-11-03T06:11:25;27.43;;;9.23;;
8252;SDS011;61313;48.396;10.008;2022-11-03T06:13:55;24.33;;;9.00;;
8252;SDS011;61313;48.396;10.008;2022-11-03T06:16:30;21.03;;;9.30;;
8252;SDS011;61313;48.396;10.008;2022-11-03T06:18:58;40.30;;;10.00;;
8252;SDS011;61313;48.396;10.008;2022-11-03T06:21:25;23.90;;;10.40;;
8252;SDS011;61313;48.396;10.008;2022-11-03T06:23:51;39.30;;;13.67;;
8252;SDS011;61313;48.396;10.008;2022-11-03T06:26:26;49.40;;;16.00;;
8252;SDS011;61313;48.396;10.008;2022-11-03T06:28:52;48.10;;;17.90;;
8252;SDS011;61313;48.396;10.008;2022-11-03T06:31:23;47.10;;;22.63;;
8252;SDS011;61313;48.396;10.008;2022-11-03T06:33:52;113.73;;;34.03;;
8252;SDS011;61313;48.396;10.008;2022-11-03T06:36:21;57.33;;;22.27;;
8252;SDS011;61313;48.396;10.008;2022-11-03T06:38:55;40.40;;;21.30;;
8252;SDS011;61313;48.396;10.008;2022-11-03T06:41:25;73.77;;;24.47;;
8252;SDS011;61313;48.396;10.008;2022-11-03T06:43:52;71.57;;;31.63;;
8252;SDS011;61313;48.396;10.008;2022-11-03T06:46:24;91.30;;;29.20;;
8252;SDS011;61313;48.396;10.008;2022-11-03T06:48:51;63.47;;;26.50;;
8252;SDS011;61313;48.396;10.008;2022-11-03T06:51:20;59.40;;;24.70;;
8252;SDS011;61313;48.396;10.008;2022-11-03T06:53:51;43.00;;;20.40;;
8252;SDS011;61313;48.396;10.008;2022-11-03T06:56:20;45.80;;;19.33;;
8252;SDS011;61313;48.396;10.008;2022-11-03T06:58:47;37.57;;;19.67;;
8252;SDS011;61313;48.396;10.008;2022-11-03T07:01:19;39.87;;;19.90;;
8252;SDS011;61313;48.396;10.008;2022-11-03T07:03:48;37.80;;;19.87;;
8252;SDS011;61313;48.396;10.008;2022-11-03T07:06:18;96.20;;;18.00;;
8252;SDS011;61313;48.396;10.008;2022-11-03T07:09:01;51.90;;;20.07;;
8252;SDS011;61313;48.396;10.008;2022-11-03T07:11:30;52.63;;;19.20;;
8252;SDS011;61313;48.396;10.008;2022-11-03T07:14:10;46.87;;;20.23;;
8252;SDS011;61313;48.396;10.008;2022-11-03T07:19:21;46.90;;;14.00;;
8252;SDS011;61313;48.396;10.008;2022-11-03T07:21:50;47.20;;;17.30;;
8252;SDS011;61313;48.396;10.008;2022-11-03T07:26:55;32.17;;;14.67;;
8252;SDS011;61313;48.396;10.008;2022-11-03T07:29:31;31.57;;;13.97;;
8252;SDS011;61313;48.396;10.008;2022-11-03T07:31:58;35.90;;;14.37;;
8252;SDS011;61313;48.396;10.008;2022-11-03T07:34:25;27.43;;;12.37;;
8252;SDS011;61313;48.396;10.008;2022-11-03T07:36:56;28.07;;;12.50;;
8252;SDS011;61313;48.396;10.008;2022-11-03T07:39:22;25.80;;;12.40;;
8252;SDS011;61313;48.396;10.008;2022-11-03T07:41:50;36.03;;;11.37;;
8252;SDS011;61313;48.396;10.008;2022-11-03T07:44:17;44.40;;;11.50;;
8252;SDS011;61313;48.396;10.008;2022-11-03T07:46:48;21.03;;;10.60;;
8252;SDS011;61313;48.396;10.008;2022-11-03T07:49:27;41.73;;;11.37;;
8252;SDS011;61313;48.396;10.008;2022-11-03T07:51:54;19.97;;;9.60;;
8252;SDS011;61313;48.396;10.008;2022-11-03T07:54:23;26.27;;;9.83;;
8252;SDS011;61313;48.396;10.008;2022-11-03T07:59:44;24.43;;;9.20;;
8252;SDS011;61313;48.396;10.008;2022-11-03T08:04:57;17.43;;;10.43;;
8252;SDS011;61313;48.396;10.008;2022-11-03T08:07:23;32.33;;;11.00;;
8252;SDS011;61313;48.396;10.008;2022-11-03T08:09:50;43.13;;;11.77;;
8252;SDS011;61313;48.396;10.008;2022-11-03T08:12:16;24.27;;;10.43;;
8252;SDS011;61313;48.396;10.008;2022-11-03T08:14:41;22.50;;;10.30;;
8252;SDS011;61313;48.396;10.008;2022-11-03T08:17:07;23.30;;;10.57;;
8252;SDS011;61313;48.396;10.008;2022-11-03T08:19:33;18.53;;;9.97;;
8252;SDS011;61313;48.396;10.008;2022-11-03T08:21:58;50.30;;;12.30;;
8252;SDS011;61313;48.396;10.008;2022-11-03T08:24:24;16.33;;;9.70;;
8252;SDS011;61313;48.396;10.008;2022-11-03T08:26:50;20.10;;;9.40;;
8252;SDS011;61313;48.396;10.008;2022-11-03T08:29:15;28.27;;;10.57;;
8252;SDS011;61313;48.396;10.008;2022-11-03T08:31:42;29.77;;;11.40;;
8252;SDS011;61313;48.396;10.008;2022-11-03T08:34:08;75.87;;;15.63;;
8252;SDS011;61313;48.396;10.008;2022-11-03T08:36:33;30.73;;;10.73;;
8252;SDS011;61313;48.396;10.008;2022-11-03T08:39:01;16.03;;;9.67;;
8252;SDS011;61313;48.396;10.008;2022-11-03T08:41:27;25.33;;;10.10;;
8252;SDS011;61313;48.396;10.008;2022-11-03T08:43:53;19.47;;;9.50;;
8252;SDS011;61313;48.396;10.008;2022-11-03T08:46:18;17.87;;;8.50;;
8252;SDS011;61313;48.396;10.008;2022-11-03T08:48:44;23.77;;;9.40;;
8252;SDS011;61313;48.396;10.008;2022-11-03T08:51:10;12.03;;;8.67;;
8252;SDS011;61313;48.396;10.008;2022-11-03T08:53:38;16.57;;;8.83;;
8252;SDS011;61313;48.396;10.008;2022-11-03T08:56:04;19.70;;;8.67;;
8252;SDS011;61313;48.396;10.008;2022-11-03T08:58:30;14.00;;;8.80;;
8252;SDS011;61313;48.396;10.008;2022-11-03T09:00:56;10.23;;;7.87;;
8252;SDS011;61313;48.396;10.008;2022-11-03T09:03:22;37.03;;;10.90;;
8252;SDS011;61313;48.396;10.008;2022-11-03T09:05:48;24.40;;;9.83;;
8252;SDS011;61313;48.396;10.008;2022-11-03T09:08:14;22.83;;;8.90;;
8252;SDS011;61313;48.396;10.008;2022-11-03T09:10:40;24.13;;;8.60;;
8252;SDS011;61313;48.396;10.008;2022-11-03T09:13:06;15.63;;;8.30;;
8252;SDS011;61313;48.396;10.008;2022-11-03T09:15:32;9.40;;;8.00;;
8252;SDS011;61313;48.396;10.008;2022-11-03T09:17:58;11.70;;;8.17;;
8252;SDS011;61313;48.396;10.008;2022-11-03T09:20:23;16.00;;;9.50;;
8252;SDS011;61313;48.396;10.008;2022-11-03T09:22:49;13.87;;;9.57;;
8252;SDS011;61313;48.396;10.008;2022-11-03T09:25:15;21.23;;;9.20;;
8252;SDS011;61313;48.396;10.008;2022-11-03T09:27:41;37.30;;;10.40;;
8252;SDS011;61313;48.396;10.008;2022-11-03T09:30:07;15.30;;;9.07;;
8252;SDS011;61313;48.396;10.008;2022-11-03T09:32:33;13.50;;;9.10;;
8252;SDS011;61313;48.396;10.008;2022-11-03T09:34:59;11.30;;;8.90;;
8252;SDS011;61313;48.396;10.008;2022-11-03T09:37:25;21.17;;;8.60;;
8252;SDS011;61313;48.396;10.008;2022-11-03T09:39:50;21.40;;;9.50;;
8252;SDS011;61313;48.396;10.008;2022-11-03T09:42:16;14.77;;;8.60;;
8252;SDS011;61313;48.396;10.008;2022-11-03T09:44:43;12.13;;;9.27;;
8252;SDS011;61313;48.396;10.008;2022-11-03T09:47:14;32.50;;;12.00;;
8252;SDS011;61313;48.396;10.008;2022-11-03T09:49:46;11.13;;;8.30;;
8252;SDS011;61313;48.396;10.008;2022-11-03T09:52:13;10.03;;;9.13;;
8252;SDS011;61313;48.396;10.008;2022-11-03T09:54:44;31.27;;;9.57;;
8252;SDS011;61313;48.396;10.008;2022-11-03T09:57:10;21.87;;;9.70;;
8252;SDS011;61313;48.396;10.008;2022-11-03T09:59:38;13.53;;;7.83;;
8252;SDS011;61313;48.396;10.008;2022-11-03T10:02:14;16.80;;;10.47;;
8252;SDS011;61313;48.396;10.008;2022-11-03T10:04:41;30.20;;;9.30;;
8252;SDS011;61313;48.396;10.008;2022-11-03T10:07:07;11.00;;;9.07;;
8252;SDS011;61313;48.396;10.008;2022-11-03T10:09:33;27.27;;;9.83;;
8252;SDS011;61313;48.396;10.008;2022-11-03T10:11:59;20.73;;;10.20;;
8252;SDS011;61313;48.396;10.008;2022-11-03T10:14:25;32.77;;;11.43;;
8252;SDS011;61313;48.396;10.008;2022-11-03T10:16:52;57.43;;;13.43;;
8252;SDS011;61313;48.396;10.008;2022-11-03T10:19:24;24.70;;;12.20;;
8252;SDS011;61313;48.396;10.008;2022-11-03T10:21:50;22.47;;;10.60;;
8252;SDS011;61313;48.396;10.008;2022-11-03T10:24:16;12.23;;;10.90;;
8252;SDS011;61313;48.396;10.008;2022-11-03T10:26:52;16.37;;;9.87;;
8252;SDS011;61313;48.396;10.008;2022-11-03T10:29:21;12.87;;;10.07;;
8252;SDS011;61313;48.396;10.008;2022-11-03T10:31:50;16.20;;;12.70;;
8252;SDS011;61313;48.396;10.008;2022-11-03T10:34:24;12.53;;;10.77;;
8252;SDS011;61313;48.396;10.008;2022-11-03T10:37:03;33.70;;;13.90;;
8252;SDS011;61313;48.396;10.008;2022-11-03T10:39:41;29.90;;;11.60;;
8252;SDS011;61313;48.396;10.008;2022-11-03T10:42:15;17.37;;;11.70;;
8252;SDS011;61313;48.396;10.008;2022-11-03T10:44:43;49.90;;;13.63;;
8252;SDS011;61313;48.396;10.008;2022-11-03T10:47:09;26.20;;;11.03;;
8252;SDS011;61313;48.396;10.008;2022-11-03T10:49:48;24.00;;;10.30;;
8252;SDS011;61313;48.396;10.008;2022-11-03T10:54:44;28.53;;;12.13;;
8252;SDS011;61313;48.396;10.008;2022-11-03T10:57:10;19.87;;;10.00;;
8252;SDS011;61313;48.396;10.008;2022-11-03T10:59:36;127.70;;;23.00;;
8252;SDS011;61313;48.396;10.008;2022-11-03T11:02:09;180.50;;;26.13;;
8252;SDS011;61313;48.396;10.008;2022-11-03T11:04:40;263.57;;;36.80;;
8252;SDS011;61313;48.396;10.008;2022-11-03T11:07:20;31.83;;;12.10;;
8252;SDS011;61313;48.396;10.008;2022-11-03T11:09:49;14.50;;;9.60;;
8252;SDS011;61313;48.396;10.008;2022-11-03T11:12:24;16.10;;;9.43;;
8252;SDS011;61313;48.396;10.008;2022-11-03T11:14:55;21.03;;;10.33;;
8252;SDS011;61313;48.396;10.008;2022-11-03T11:22:46;36.83;;;12.23;;
8252;SDS011;61313;48.396;10.008;2022-11-03T11:25:12;26.47;;;11.70;;
8252;SDS011;61313;48.396;10.008;2022-11-03T11:37:56;75.03;;;16.07;;
8252;SDS011;61313;48.396;10.008;2022-11-03T11:41:00;65.40;;;13.77;;
8252;SDS011;61313;48.396;10.008;2022-11-03T11:43:25;48.90;;;13.57;;
8252;SDS011;61313;48.396;10.008;2022-11-03T11:51:26;57.27;;;13.93;;
8252;SDS011;61313;48.396;10.008;2022-11-03T11:53:52;62.97;;;17.20;;
8252;SDS011;61313;48.396;10.008;2022-11-03T11:56:18;23.80;;;9.87;;
8252;SDS011;61313;48.396;10.008;2022-11-03T11:58:48;46.37;;;13.20;;
8252;SDS011;61313;48.396;10.008;2022-11-03T12:03:45;14.57;;;10.30;;
8252;SDS011;61313;48.396;10.008;2022-11-03T12:06:12;141.37;;;22.97;;
8252;SDS011;61313;48.396;10.008;2022-11-03T12:08:38;220.50;;;33.40;;
8252;SDS011;61313;48.396;10.008;2022-11-03T12:11:04;207.30;;;31.17;;
8252;SDS011;61313;48.396;10.008;2022-11-03T12:16:07;34.97;;;12.93;;
8252;SDS011;61313;48.396;10.008;2022-11-03T12:18:42;32.70;;;13.80;;
8252;SDS011;61313;48.396;10.008;2022-11-03T12:21:08;66.43;;;17.77;;
8252;SDS011;61313;48.396;10.008;2022-11-03T12:23:42;171.87;;;27.10;;
8252;SDS011;61313;48.396;10.008;2022-11-03T12:28:53;54.40;;;14.57;;
8252;SDS011;61313;48.396;10.008;2022-11-03T12:31:18;66.23;;;15.70;;
8252;SDS011;61313;48.396;10.008;2022-11-03T12:33:44;84.07;;;20.00;;
8252;SDS011;61313;48.396;10.008;2022-11-03T12:36:10;37.13;;;14.77;;
8252;SDS011;61313;48.396;10.008;2022-11-03T12:38:36;35.53;;;13.10;;
8252;SDS011;61313;48.396;10.008;2022-11-03T12:41:01;29.57;;;12.13;;
8252;SDS011;61313;48.396;10.008;2022-11-03T12:43:48;41.97;;;12.87;;
8252;SDS011;61313;48.396;10.008;2022-11-03T12:46:16;38.50;;;13.50;;
8252;SDS011;61313;48.396;10.008;2022-11-03T12:48:43;54.20;;;14.30;;
8252;SDS011;61313;48.396;10.008;2022-11-03T12:51:10;44.77;;;13.90;;
8252;SDS011;61313;48.396;10.008;2022-11-03T12:53:36;41.20;;;12.90;;
8252;SDS011;61313;48.396;10.008;2022-11-03T12:56:02;121.00;;;21.20;;
8252;SDS011;61313;48.396;10.008;2022-11-03T12:58:28;93.63;;;19.93;;
8252;SDS011;61313;48.396;10.008;2022-11-03T13:00:54;76.83;;;17.63;;
8252;SDS011;61313;48.396;10.008;2022-11-03T13:03:20;20.70;;;12.27;;
8252;SDS011;61313;48.396;10.008;2022-11-03T13:05:45;32.57;;;12.30;;
8252;SDS011;61313;48.396;10.008;2022-11-03T13:08:12;79.80;;;16.70;;
8252;SDS011;61313;48.396;10.008;2022-11-03T13:10:38;105.23;;;18.87;;
8252;SDS011;61313;48.396;10.008;2022-11-03T13:13:04;49.97;;;13.90;;
8252;SDS011;61313;48.396;10.008;2022-11-03T13:15:30;43.17;;;14.60;;
8252;SDS011;61313;48.396;10.008;2022-11-03T13:17:56;15.40;;;11.37;;
8252;SDS011;61313;48.396;10.008;2022-11-03T13:20:22;17.10;;;10.83;;
8252;SDS011;61313;48.396;10.008;2022-11-03T13:22:48;13.40;;;10.07;;
8252;SDS011;61313;48.396;10.008;2022-11-03T13:25:14;81.13;;;20.30;;
8252;SDS011;61313;48.396;10.008;2022-11-03T13:27:40;58.27;;;14.33;;
8252;SDS011;61313;48.396;10.008;2022-11-03T13:30:06;33.60;;;14.80;;
8252;SDS011;61313;48.396;10.008;2022-11-03T13:32:32;22.30;;;13.07;;
8252;SDS011;61313;48.396;10.008;2022-11-03T13:34:58;32.27;;;13.87;;
8252;SDS011;61313;48.396;10.008;2022-11-03T13:37:23;68.47;;;18.20;;
8252;SDS011;61313;48.396;10.008;2022-11-03T13:39:49;18.43;;;12.40;;
8252;SDS011;61313;48.396;10.008;2022-11-03T13:42:15;22.40;;;12.60;;
8252;SDS011;61313;48.396;10.008;2022-11-03T13:44:40;19.27;;;12.43;;
8252;SDS011;61313;48.396;10.008;2022-11-03T13:47:06;21.87;;;13.27;;
8252;SDS011;61313;48.396;10.008;2022-11-03T13:49:32;17.87;;;12.23;;
8252;SDS011;61313;48.396;10.008;2022-11-03T13:51:58;27.23;;;12.37;;
8252;SDS011;61313;48.396;10.008;2022-11-03T13:54:23;20.33;;;11.90;;
8252;SDS011;61313;48.396;10.008;2022-11-03T13:56:49;29.17;;;12.37;;
8252;SDS011;61313;48.396;10.008;2022-11-03T13:59:15;32.97;;;14.63;;
8252;SDS011;61313;48.396;10.008;2022-11-03T14:01:41;43.23;;;14.00;;
8252;SDS011;61313;48.396;10.008;2022-11-03T14:04:06;183.50;;;28.13;;
8252;SDS011;61313;48.396;10.008;2022-11-03T14:06:32;70.13;;;18.00;;
8252;SDS011;61313;48.396;10.008;2022-11-03T14:08:58;33.57;;;14.67;;
8252;SDS011;61313;48.396;10.008;2022-11-03T14:11:23;18.27;;;11.00;;
8252;SDS011;61313;48.396;10.008;2022-11-03T14:14:08;130.53;;;22.17;;
8252;SDS011;61313;48.396;10.008;2022-11-03T14:16:33;175.80;;;30.67;;
8252;SDS011;61313;48.396;10.008;2022-11-03T14:18:59;27.23;;;13.63;;
8252;SDS011;61313;48.396;10.008;2022-11-03T14:21:25;24.83;;;13.53;;
8252;SDS011;61313;48.396;10.008;2022-11-03T14:23:51;22.83;;;13.47;;
8252;SDS011;61313;48.396;10.008;2022-11-03T14:26:17;14.60;;;12.23;;
8252;SDS011;61313;48.396;10.008;2022-11-03T14:28:43;24.03;;;12.83;;
8252;SDS011;61313;48.396;10.008;2022-11-03T14:31:08;17.20;;;12.77;;
8252;SDS011;61313;48.396;10.008;2022-11-03T14:33:34;12.77;;;11.47;;
8252;SDS011;61313;48.396;10.008;2022-11-03T14:36:00;44.83;;;15.93;;
8252;SDS011;61313;48.396;10.008;2022-11-03T14:38:25;33.37;;;14.13;;
8252;SDS011;61313;48.396;10.008;2022-11-03T14:40:51;19.90;;;13.50;;
8252;SDS011;61313;48.396;10.008;2022-11-03T14:43:35;42.70;;;16.77;;
8252;SDS011;61313;48.396;10.008;2022-11-03T14:46:01;61.47;;;15.70;;
8252;SDS011;61313;48.396;10.008;2022-11-03T14:48:26;35.30;;;17.53;;
8252;SDS011;61313;48.396;10.008;2022-11-03T14:50:52;81.00;;;18.57;;
8252;SDS011;61313;48.396;10.008;2022-11-03T14:53:18;16.60;;;13.67;;
8252;SDS011;61313;48.396;10.008;2022-11-03T14:55:44;30.70;;;14.60;;
8252;SDS011;61313;48.396;10.008;2022-11-03T14:58:10;31.87;;;13.10;;
8252;SDS011;61313;48.396;10.008;2022-11-03T15:00:35;39.70;;;14.50;;
8252;SDS011;61313;48.396;10.008;2022-11-03T15:03:01;13.00;;;11.70;;
8252;SDS011;61313;48.396;10.008;2022-11-03T15:05:27;22.80;;;13.37;;
8252;SDS011;61313;48.396;10.008;2022-11-03T15:08:08;21.07;;;12.53;;
8252;SDS011;61313;48.396;10.008;2022-11-03T15:10:37;16.40;;;13.60;;
8252;SDS011;61313;48.396;10.008;2022-11-03T15:13:03;58.77;;;15.87;;
8252;SDS011;61313;48.396;10.008;2022-11-03T15:15:29;20.70;;;12.67;;
8252;SDS011;61313;48.396;10.008;2022-11-03T15:17:55;31.13;;;16.37;;
8252;SDS011;61313;48.396;10.008;2022-11-03T15:20:21;27.40;;;15.77;;
8252;SDS011;61313;48.396;10.008;2022-11-03T15:22:46;109.13;;;24.00;;
8252;SDS011;61313;48.396;10.008;2022-11-03T15:25:12;33.73;;;17.30;;
8252;SDS011;61313;48.396;10.008;2022-11-03T15:27:38;40.17;;;20.97;;
8252;SDS011;61313;48.396;10.008;2022-11-03T15:30:04;59.10;;;22.27;;
8252;SDS011;61313;48.396;10.008;2022-11-03T15:32:33;40.53;;;21.70;;
8252;SDS011;61313;48.396;10.008;2022-11-03T15:34:59;52.07;;;25.93;;
8252;SDS011;61313;48.396;10.008;2022-11-03T15:37:25;52.00;;;27.60;;
8252;SDS011;61313;48.396;10.008;2022-11-03T15:39:51;45.27;;;30.17;;
8252;SDS011;61313;48.396;10.008;2022-11-03T15:42:17;56.63;;;27.67;;
8252;SDS011;61313;48.396;10.008;2022-11-03T15:44:42;49.10;;;28.77;;
8252;SDS011;61313;48.396;10.008;2022-11-03T15:47:08;37.73;;;28.77;;